sensor_id;sensor_type;location;lat;lon;timestamp;P1;durP1;ratioP1;P2;durP2;ratioP2
24787;SDS011;12883;52.662;5.196;2024-01-16T00:00:21;1.63;;;1.63;;
24787;SDS011;12883;52.662;5.196;2024-01-16T00:02:47;1.40;;;1.40;;
24787;SDS011;12883;52.662;5.196;2024-01-16T00:05:12;1.63;;;1.63;;
24787;SDS011;12883;52.662;5.196;2024-01-16T00:07:38;1.80;;;1.80;;
24787;SDS011;12883;52.662;5.196;2024-01-16T00:10:06;1.87;;;1.87;;
24787;SDS011;12883;52.662;5.196;2024-01-16T00:12:32;1.80;;;1.80;;
24787;SDS011;12883;52.662;5.196;2024-01-16T00:14:58;2.20;;;2.20;;
24787;SDS011;12883;52.662;5.196;2024-01-16T00:17:23;1.83;;;1.83;;
24787;SDS011;12883;52.662;5.196;2024-01-16T00:19:48;1.33;;;1.33;;
24787;SDS011;12883;52.662;5.196;2024-01-16T00:22:14;1.70;;;1.70;;
24787;SDS011;12883;52.662;5.196;2024-01-16T00:24:39;1.70;;;1.70;;
24787;SDS011;12883;52.662;5.196;2024-01-16T00:27:05;1.27;;;1.27;;
24787;SDS011;12883;52.662;5.196;2024-01-16T00:29:30;0.97;;;0.97;;
24787;SDS011;12883;52.662;5.196;2024-01-16T00:31:56;1.00;;;1.00;;
24787;SDS011;12883;52.662;5.196;2024-01-16T00:34:21;1.10;;;1.10;;
24787;SDS011;12883;52.662;5.196;2024-01-16T00:36:47;0.90;;;0.90;;
24787;SDS011;12883;52.662;5.196;2024-01-16T00:39:12;1.00;;;1.00;;
24787;SDS011;12883;52.662;5.196;2024-01-16T00:41:38;1.00;;;1.00;;
24787;SDS011;12883;52.662;5.196;2024-01-16T00:44:03;0.80;;;0.80;;
24787;SDS011;12883;52.662;5.196;2024-01-16T00:46:29;1.17;;;1.17;;
24787;SDS011;12883;52.662;5.196;2024-01-16T00:48:55;0.70;;;0.70;;
24787;SDS011;12883;52.662;5.196;2024-01-16T00:51:20;1.03;;;1.03;;
24787;SDS011;12883;52.662;5.196;2024-01-16T00:53:46;0.80;;;0.80;;
24787;SDS011;12883;52.662;5.196;2024-01-16T00:56:11;0.90;;;0.90;;
24787;SDS011;12883;52.662;5.196;2024-01-16T00:58:37;0.80;;;0.80;;
24787;SDS011;12883;52.662;5.196;2024-01-16T01:01:03;0.80;;;0.80;;
24787;SDS011;12883;52.662;5.196;2024-01-16T01:03:29;0.97;;;0.97;;
24787;SDS011;12883;52.662;5.196;2024-01-16T01:05:54;0.90;;;0.90;;
24787;SDS011;12883;52.662;5.196;2024-01-16T01:08:20;1.60;;;1.60;;
24787;SDS011;12883;52.662;5.196;2024-01-16T01:10:46;1.00;;;1.00;;
24787;SDS011;12883;52.662;5.196;2024-01-16T01:13:12;0.90;;;0.90;;
24787;SDS011;12883;52.662;5.196;2024-01-16T01:15:37;1.47;;;1.47;;
24787;SDS011;12883;52.662;5.196;2024-01-16T01:18:03;1.27;;;1.27;;
24787;SDS011;12883;52.662;5.196;2024-01-16T01:20:29;1.20;;;1.20;;
24787;SDS011;12883;52.662;5.196;2024-01-16T01:22:54;1.40;;;1.40;;
24787;SDS011;12883;52.662;5.196;2024-01-16T01:25:20;1.03;;;1.03;;
24787;SDS011;12883;52.662;5.196;2024-01-16T01:27:45;1.10;;;1.10;;
24787;SDS011;12883;52.662;5.196;2024-01-16T01:30:11;1.00;;;1.00;;
24787;SDS011;12883;52.662;5.196;2024-01-16T01:32:37;1.07;;;1.07;;
24787;SDS011;12883;52.662;5.196;2024-01-16T01:35:03;1.20;;;1.20;;
24787;SDS011;12883;52.662;5.196;2024-01-16T01:37:29;0.80;;;0.80;;
24787;SDS011;12883;52.662;5.196;2024-01-16T01:39:54;1.20;;;1.20;;
24787;SDS011;12883;52.662;5.196;2024-01-16T01:42:20;1.63;;;1.63;;
24787;SDS011;12883;52.662;5.196;2024-01-16T01:44:45;1.40;;;1.40;;
24787;SDS011;12883;52.662;5.196;2024-01-16T01:47:11;1.63;;;1.63;;
24787;SDS011;12883;52.662;5.196;2024-01-16T01:49:37;1.60;;;1.60;;
24787;SDS011;12883;52.662;5.196;2024-01-16T01:52:03;1.23;;;1.23;;
24787;SDS011;12883;52.662;5.196;2024-01-16T01:54:30;1.43;;;1.43;;
24787;SDS011;12883;52.662;5.196;2024-01-16T01:56:58;1.83;;;1.83;;
24787;SDS011;12883;52.662;5.196;2024-01-16T01:59:24;1.43;;;1.43;;
24787;SDS011;12883;52.662;5.196;2024-01-16T02:01:51;1.40;;;1.40;;
24787;SDS011;12883;52.662;5.196;2024-01-16T02:04:17;1.27;;;1.27;;
24787;SDS011;12883;52.662;5.196;2024-01-16T02:06:44;1.33;;;1.33;;
24787;SDS011;12883;52.662;5.196;2024-01-16T02:09:13;1.50;;;1.50;;
24787;SDS011;12883;52.662;5.196;2024-01-16T02:11:41;1.23;;;1.23;;
24787;SDS011;12883;52.662;5.196;2024-01-16T02:14:08;1.67;;;1.67;;
24787;SDS011;12883;52.662;5.196;2024-01-16T02:16:37;1.10;;;1.10;;
24787;SDS011;12883;52.662;5.196;2024-01-16T02:19:04;1.00;;;1.00;;
24787;SDS011;12883;52.662;5.196;2024-01-16T02:21:32;1.40;;;1.40;;
24787;SDS011;12883;52.662;5.196;2024-01-16T02:24:03;1.67;;;1.67;;
24787;SDS011;12883;52.662;5.196;2024-01-16T02:26:30;1.13;;;1.13;;
24787;SDS011;12883;52.662;5.196;2024-01-16T02:28:56;1.57;;;1.57;;
24787;SDS011;12883;52.662;5.196;2024-01-16T02:31:21;1.00;;;1.00;;
24787;SDS011;12883;52.662;5.196;2024-01-16T02:33:46;1.10;;;1.10;;
24787;SDS011;12883;52.662;5.196;2024-01-16T02:36:12;1.13;;;1.13;;
24787;SDS011;12883;52.662;5.196;2024-01-16T02:38:37;1.30;;;1.30;;
24787;SDS011;12883;52.662;5.196;2024-01-16T02:41:03;1.53;;;1.53;;
24787;SDS011;12883;52.662;5.196;2024-01-16T02:43:28;1.23;;;1.23;;
24787;SDS011;12883;52.662;5.196;2024-01-16T02:45:54;1.40;;;1.40;;
24787;SDS011;12883;52.662;5.196;2024-01-16T02:48:19;2.13;;;2.13;;
24787;SDS011;12883;52.662;5.196;2024-01-16T02:50:45;1.20;;;1.20;;
24787;SDS011;12883;52.662;5.196;2024-01-16T02:53:10;1.47;;;1.47;;
24787;SDS011;12883;52.662;5.196;2024-01-16T02:55:36;1.30;;;1.30;;
24787;SDS011;12883;52.662;5.196;2024-01-16T02:58:01;1.40;;;1.40;;
24787;SDS011;12883;52.662;5.196;2024-01-16T03:00:28;1.13;;;1.13;;
24787;SDS011;12883;52.662;5.196;2024-01-16T03:02:53;1.87;;;1.87;;
24787;SDS011;12883;52.662;5.196;2024-01-16T03:05:19;1.03;;;1.03;;
24787;SDS011;12883;52.662;5.196;2024-01-16T03:07:44;1.60;;;1.60;;
24787;SDS011;12883;52.662;5.196;2024-01-16T03:10:10;1.70;;;1.70;;
24787;SDS011;12883;52.662;5.196;2024-01-16T03:12:36;1.10;;;1.10;;
24787;SDS011;12883;52.662;5.196;2024-01-16T03:15:01;1.23;;;1.23;;
24787;SDS011;12883;52.662;5.196;2024-01-16T03:17:27;1.10;;;1.10;;
24787;SDS011;12883;52.662;5.196;2024-01-16T03:19:53;1.30;;;1.30;;
24787;SDS011;12883;52.662;5.196;2024-01-16T03:22:18;1.20;;;1.20;;
24787;SDS011;12883;52.662;5.196;2024-01-16T03:24:43;1.90;;;1.90;;
24787;SDS011;12883;52.662;5.196;2024-01-16T03:27:09;1.10;;;1.10;;
24787;SDS011;12883;52.662;5.196;2024-01-16T03:29:34;1.97;;;1.97;;
24787;SDS011;12883;52.662;5.196;2024-01-16T03:32:00;1.33;;;1.33;;
24787;SDS011;12883;52.662;5.196;2024-01-16T03:34:26;1.53;;;1.53;;
24787;SDS011;12883;52.662;5.196;2024-01-16T03:36:52;1.50;;;1.50;;
24787;SDS011;12883;52.662;5.196;2024-01-16T03:39:17;1.57;;;1.57;;
24787;SDS011;12883;52.662;5.196;2024-01-16T03:41:43;1.60;;;1.60;;
24787;SDS011;12883;52.662;5.196;2024-01-16T03:44:08;1.40;;;1.40;;
24787;SDS011;12883;52.662;5.196;2024-01-16T03:46:34;1.50;;;1.50;;
24787;SDS011;12883;52.662;5.196;2024-01-16T03:48:59;2.17;;;2.17;;
24787;SDS011;12883;52.662;5.196;2024-01-16T03:51:25;1.07;;;1.07;;
24787;SDS011;12883;52.662;5.196;2024-01-16T03:53:50;2.23;;;2.23;;
24787;SDS011;12883;52.662;5.196;2024-01-16T03:56:16;1.70;;;1.70;;
24787;SDS011;12883;52.662;5.196;2024-01-16T03:58:41;1.20;;;1.20;;
24787;SDS011;12883;52.662;5.196;2024-01-16T04:01:07;1.40;;;1.40;;
24787;SDS011;12883;52.662;5.196;2024-01-16T04:03:32;1.97;;;1.97;;
24787;SDS011;12883;52.662;5.196;2024-01-16T04:05:58;1.70;;;1.70;;
24787;SDS011;12883;52.662;5.196;2024-01-16T04:08:24;1.87;;;1.87;;
24787;SDS011;12883;52.662;5.196;2024-01-16T04:10:49;1.20;;;1.20;;
24787;SDS011;12883;52.662;5.196;2024-01-16T04:13:14;2.97;;;2.97;;
24787;SDS011;12883;52.662;5.196;2024-01-16T04:15:41;2.23;;;2.23;;
24787;SDS011;12883;52.662;5.196;2024-01-16T04:18:06;1.20;;;1.20;;
24787;SDS011;12883;52.662;5.196;2024-01-16T04:20:32;1.47;;;1.47;;
24787;SDS011;12883;52.662;5.196;2024-01-16T04:22:57;1.50;;;1.50;;
24787;SDS011;12883;52.662;5.196;2024-01-16T04:25:23;1.90;;;1.90;;
24787;SDS011;12883;52.662;5.196;2024-01-16T04:27:49;1.07;;;1.07;;
24787;SDS011;12883;52.662;5.196;2024-01-16T04:30:14;1.53;;;1.53;;
24787;SDS011;12883;52.662;5.196;2024-01-16T04:32:39;1.47;;;1.47;;
24787;SDS011;12883;52.662;5.196;2024-01-16T04:35:05;1.20;;;1.20;;
24787;SDS011;12883;52.662;5.196;2024-01-16T04:37:30;1.37;;;1.37;;
24787;SDS011;12883;52.662;5.196;2024-01-16T04:39:56;1.43;;;1.43;;
24787;SDS011;12883;52.662;5.196;2024-01-16T04:42:23;2.07;;;2.07;;
24787;SDS011;12883;52.662;5.196;2024-01-16T04:44:48;1.33;;;1.33;;
24787;SDS011;12883;52.662;5.196;2024-01-16T04:47:13;1.20;;;1.20;;
24787;SDS011;12883;52.662;5.196;2024-01-16T04:49:41;1.40;;;1.40;;
24787;SDS011;12883;52.662;5.196;2024-01-16T04:52:07;1.53;;;1.53;;
24787;SDS011;12883;52.662;5.196;2024-01-16T04:54:32;1.30;;;1.30;;
24787;SDS011;12883;52.662;5.196;2024-01-16T04:56:58;1.53;;;1.53;;
24787;SDS011;12883;52.662;5.196;2024-01-16T04:59:23;1.50;;;1.50;;
24787;SDS011;12883;52.662;5.196;2024-01-16T05:01:48;1.30;;;1.30;;
24787;SDS011;12883;52.662;5.196;2024-01-16T05:04:14;1.93;;;1.93;;
24787;SDS011;12883;52.662;5.196;2024-01-16T05:06:39;1.40;;;1.40;;
24787;SDS011;12883;52.662;5.196;2024-01-16T05:09:04;1.00;;;1.00;;
24787;SDS011;12883;52.662;5.196;2024-01-16T05:11:30;1.30;;;1.30;;
24787;SDS011;12883;52.662;5.196;2024-01-16T05:13:55;2.00;;;2.00;;
24787;SDS011;12883;52.662;5.196;2024-01-16T05:16:24;1.30;;;1.30;;
24787;SDS011;12883;52.662;5.196;2024-01-16T05:18:49;1.13;;;1.13;;
24787;SDS011;12883;52.662;5.196;2024-01-16T05:21:15;1.40;;;1.40;;
24787;SDS011;12883;52.662;5.196;2024-01-16T05:23:40;1.63;;;1.63;;
24787;SDS011;12883;52.662;5.196;2024-01-16T05:26:06;1.70;;;1.70;;
24787;SDS011;12883;52.662;5.196;2024-01-16T05:28:31;1.47;;;1.47;;
24787;SDS011;12883;52.662;5.196;2024-01-16T05:30:56;1.33;;;1.33;;
24787;SDS011;12883;52.662;5.196;2024-01-16T05:33:21;1.93;;;1.93;;
24787;SDS011;12883;52.662;5.196;2024-01-16T05:35:47;1.03;;;1.03;;
24787;SDS011;12883;52.662;5.196;2024-01-16T05:38:12;1.30;;;1.30;;
24787;SDS011;12883;52.662;5.196;2024-01-16T05:40:38;1.63;;;1.63;;
24787;SDS011;12883;52.662;5.196;2024-01-16T05:43:04;1.57;;;1.57;;
24787;SDS011;12883;52.662;5.196;2024-01-16T05:45:29;1.20;;;1.20;;
24787;SDS011;12883;52.662;5.196;2024-01-16T05:47:54;2.20;;;2.20;;
24787;SDS011;12883;52.662;5.196;2024-01-16T05:50:21;1.50;;;1.50;;
24787;SDS011;12883;52.662;5.196;2024-01-16T05:52:46;1.57;;;1.57;;
24787;SDS011;12883;52.662;5.196;2024-01-16T05:55:12;1.47;;;1.47;;
24787;SDS011;12883;52.662;5.196;2024-01-16T05:57:37;1.83;;;1.83;;
24787;SDS011;12883;52.662;5.196;2024-01-16T06:00:03;1.60;;;1.60;;
24787;SDS011;12883;52.662;5.196;2024-01-16T06:02:30;1.67;;;1.67;;
24787;SDS011;12883;52.662;5.196;2024-01-16T06:04:55;1.40;;;1.40;;
24787;SDS011;12883;52.662;5.196;2024-01-16T06:07:21;1.10;;;1.10;;
24787;SDS011;12883;52.662;5.196;2024-01-16T06:09:46;1.47;;;1.47;;
24787;SDS011;12883;52.662;5.196;2024-01-16T06:12:12;1.47;;;1.47;;
24787;SDS011;12883;52.662;5.196;2024-01-16T06:14:37;1.60;;;1.60;;
24787;SDS011;12883;52.662;5.196;2024-01-16T06:17:03;1.63;;;1.63;;
24787;SDS011;12883;52.662;5.196;2024-01-16T06:19:30;1.23;;;1.23;;
24787;SDS011;12883;52.662;5.196;2024-01-16T06:21:56;1.20;;;1.20;;
24787;SDS011;12883;52.662;5.196;2024-01-16T06:24:21;1.13;;;1.13;;
24787;SDS011;12883;52.662;5.196;2024-01-16T06:26:47;1.37;;;1.37;;
24787;SDS011;12883;52.662;5.196;2024-01-16T06:29:12;1.43;;;1.43;;
24787;SDS011;12883;52.662;5.196;2024-01-16T06:31:38;1.00;;;1.00;;
24787;SDS011;12883;52.662;5.196;2024-01-16T06:34:03;0.87;;;0.87;;
24787;SDS011;12883;52.662;5.196;2024-01-16T06:36:28;0.60;;;0.60;;
24787;SDS011;12883;52.662;5.196;2024-01-16T06:38:54;0.50;;;0.50;;
24787;SDS011;12883;52.662;5.196;2024-01-16T06:41:19;0.80;;;0.80;;
24787;SDS011;12883;52.662;5.196;2024-01-16T06:43:46;0.87;;;0.87;;
24787;SDS011;12883;52.662;5.196;2024-01-16T06:46:11;0.80;;;0.80;;
24787;SDS011;12883;52.662;5.196;2024-01-16T06:48:36;0.70;;;0.70;;
24787;SDS011;12883;52.662;5.196;2024-01-16T06:51:03;0.80;;;0.80;;
24787;SDS011;12883;52.662;5.196;2024-01-16T06:53:29;0.90;;;0.90;;
24787;SDS011;12883;52.662;5.196;2024-01-16T06:55:54;1.17;;;1.17;;
24787;SDS011;12883;52.662;5.196;2024-01-16T06:58:19;1.20;;;1.20;;
24787;SDS011;12883;52.662;5.196;2024-01-16T07:00:46;1.43;;;1.43;;
24787;SDS011;12883;52.662;5.196;2024-01-16T07:03:11;0.63;;;0.63;;
24787;SDS011;12883;52.662;5.196;2024-01-16T07:05:37;1.43;;;1.43;;
24787;SDS011;12883;52.662;5.196;2024-01-16T07:08:03;1.20;;;1.20;;
24787;SDS011;12883;52.662;5.196;2024-01-16T07:10:28;1.30;;;1.30;;
24787;SDS011;12883;52.662;5.196;2024-01-16T07:12:54;1.33;;;1.33;;
24787;SDS011;12883;52.662;5.196;2024-01-16T07:15:20;1.83;;;1.83;;
24787;SDS011;12883;52.662;5.196;2024-01-16T07:17:45;1.67;;;1.67;;
24787;SDS011;12883;52.662;5.196;2024-01-16T07:20:11;1.73;;;1.73;;
24787;SDS011;12883;52.662;5.196;2024-01-16T07:22:37;2.47;;;2.47;;
24787;SDS011;12883;52.662;5.196;2024-01-16T07:25:04;3.13;;;3.13;;
24787;SDS011;12883;52.662;5.196;2024-01-16T07:27:30;4.07;;;4.07;;
24787;SDS011;12883;52.662;5.196;2024-01-16T07:29:56;3.43;;;3.43;;
24787;SDS011;12883;52.662;5.196;2024-01-16T07:32:21;4.10;;;4.10;;
24787;SDS011;12883;52.662;5.196;2024-01-16T07:34:47;4.07;;;4.07;;
24787;SDS011;12883;52.662;5.196;2024-01-16T07:37:12;3.90;;;3.90;;
24787;SDS011;12883;52.662;5.196;2024-01-16T07:39:38;3.83;;;3.83;;
24787;SDS011;12883;52.662;5.196;2024-01-16T07:42:03;3.33;;;3.33;;
24787;SDS011;12883;52.662;5.196;2024-01-16T07:44:29;2.90;;;2.90;;
24787;SDS011;12883;52.662;5.196;2024-01-16T07:46:54;3.10;;;3.10;;
24787;SDS011;12883;52.662;5.196;2024-01-16T07:49:20;2.67;;;2.67;;
24787;SDS011;12883;52.662;5.196;2024-01-16T07:51:45;2.37;;;2.37;;
24787;SDS011;12883;52.662;5.196;2024-01-16T07:54:10;2.43;;;2.43;;
24787;SDS011;12883;52.662;5.196;2024-01-16T07:56:38;2.10;;;2.10;;
24787;SDS011;12883;52.662;5.196;2024-01-16T07:59:03;2.60;;;2.60;;
24787;SDS011;12883;52.662;5.196;2024-01-16T08:01:29;1.63;;;1.63;;
24787;SDS011;12883;52.662;5.196;2024-01-16T08:03:55;1.90;;;1.90;;
24787;SDS011;12883;52.662;5.196;2024-01-16T08:06:21;1.77;;;1.77;;
24787;SDS011;12883;52.662;5.196;2024-01-16T08:08:47;1.77;;;1.77;;
24787;SDS011;12883;52.662;5.196;2024-01-16T08:11:13;1.60;;;1.60;;
24787;SDS011;12883;52.662;5.196;2024-01-16T08:13:39;1.80;;;1.80;;
24787;SDS011;12883;52.662;5.196;2024-01-16T08:16:05;2.53;;;2.53;;
24787;SDS011;12883;52.662;5.196;2024-01-16T08:18:31;1.53;;;1.53;;
24787;SDS011;12883;52.662;5.196;2024-01-16T08:20:57;1.00;;;1.00;;
24787;SDS011;12883;52.662;5.196;2024-01-16T08:23:22;1.50;;;1.50;;
24787;SDS011;12883;52.662;5.196;2024-01-16T08:25:48;1.87;;;1.87;;
24787;SDS011;12883;52.662;5.196;2024-01-16T08:28:13;1.67;;;1.67;;
24787;SDS011;12883;52.662;5.196;2024-01-16T08:30:39;2.07;;;2.07;;
24787;SDS011;12883;52.662;5.196;2024-01-16T08:33:04;1.57;;;1.57;;
24787;SDS011;12883;52.662;5.196;2024-01-16T08:35:30;1.50;;;1.50;;
24787;SDS011;12883;52.662;5.196;2024-01-16T08:37:55;1.30;;;1.30;;
24787;SDS011;12883;52.662;5.196;2024-01-16T08:40:20;2.50;;;2.50;;
24787;SDS011;12883;52.662;5.196;2024-01-16T08:42:46;1.60;;;1.60;;
24787;SDS011;12883;52.662;5.196;2024-01-16T08:45:16;1.23;;;1.23;;
24787;SDS011;12883;52.662;5.196;2024-01-16T08:47:42;1.33;;;1.33;;
24787;SDS011;12883;52.662;5.196;2024-01-16T08:50:07;2.00;;;2.00;;
24787;SDS011;12883;52.662;5.196;2024-01-16T08:52:34;4.90;;;4.90;;
24787;SDS011;12883;52.662;5.196;2024-01-16T08:55:00;4.80;;;4.80;;
24787;SDS011;12883;52.662;5.196;2024-01-16T08:57:25;2.40;;;2.40;;
24787;SDS011;12883;52.662;5.196;2024-01-16T08:59:51;1.70;;;1.70;;
24787;SDS011;12883;52.662;5.196;2024-01-16T09:02:17;1.83;;;1.83;;
24787;SDS011;12883;52.662;5.196;2024-01-16T09:04:43;6.67;;;6.67;;
24787;SDS011;12883;52.662;5.196;2024-01-16T09:07:08;5.10;;;5.10;;
24787;SDS011;12883;52.662;5.196;2024-01-16T09:09:34;2.33;;;2.33;;
24787;SDS011;12883;52.662;5.196;2024-01-16T09:11:59;1.97;;;1.97;;
24787;SDS011;12883;52.662;5.196;2024-01-16T09:14:25;2.13;;;2.13;;
24787;SDS011;12883;52.662;5.196;2024-01-16T09:16:50;2.30;;;2.30;;
24787;SDS011;12883;52.662;5.196;2024-01-16T09:19:15;2.07;;;2.07;;
24787;SDS011;12883;52.662;5.196;2024-01-16T09:21:41;2.47;;;2.47;;
24787;SDS011;12883;52.662;5.196;2024-01-16T09:24:06;2.20;;;2.20;;
24787;SDS011;12883;52.662;5.196;2024-01-16T09:26:32;2.00;;;2.00;;
24787;SDS011;12883;52.662;5.196;2024-01-16T09:28:58;1.87;;;1.87;;
24787;SDS011;12883;52.662;5.196;2024-01-16T09:31:23;2.17;;;2.17;;
24787;SDS011;12883;52.662;5.196;2024-01-16T09:33:49;3.33;;;3.33;;
24787;SDS011;12883;52.662;5.196;2024-01-16T09:36:15;2.17;;;2.17;;
24787;SDS011;12883;52.662;5.196;2024-01-16T09:38:40;2.70;;;2.70;;
24787;SDS011;12883;52.662;5.196;2024-01-16T09:41:06;2.00;;;2.00;;
24787;SDS011;12883;52.662;5.196;2024-01-16T09:43:31;1.80;;;1.80;;
24787;SDS011;12883;52.662;5.196;2024-01-16T09:46:00;1.80;;;1.80;;
24787;SDS011;12883;52.662;5.196;2024-01-16T09:48:27;2.50;;;2.50;;
24787;SDS011;12883;52.662;5.196;2024-01-16T09:50:55;2.00;;;2.00;;
24787;SDS011;12883;52.662;5.196;2024-01-16T09:53:20;3.93;;;3.93;;
24787;SDS011;12883;52.662;5.196;2024-01-16T09:55:46;2.47;;;2.47;;
24787;SDS011;12883;52.662;5.196;2024-01-16T09:58:14;2.93;;;2.93;;
24787;SDS011;12883;52.662;5.196;2024-01-16T10:00:43;4.60;;;4.60;;
24787;SDS011;12883;52.662;5.196;2024-01-16T10:03:09;5.10;;;5.10;;
24787;SDS011;12883;52.662;5.196;2024-01-16T10:05:38;6.97;;;6.97;;
24787;SDS011;12883;52.662;5.196;2024-01-16T10:08:07;7.00;;;7.00;;
24787;SDS011;12883;52.662;5.196;2024-01-16T10:10:33;7.67;;;7.57;;
24787;SDS011;12883;52.662;5.196;2024-01-16T10:12:59;7.00;;;7.00;;
24787;SDS011;12883;52.662;5.196;2024-01-16T10:15:25;7.20;;;7.20;;
24787;SDS011;12883;52.662;5.196;2024-01-16T10:17:50;7.30;;;7.30;;
24787;SDS011;12883;52.662;5.196;2024-01-16T10:20:15;6.37;;;6.37;;
24787;SDS011;12883;52.662;5.196;2024-01-16T10:22:52;5.60;;;5.60;;
24787;SDS011;12883;52.662;5.196;2024-01-16T10:25:18;6.10;;;6.10;;
24787;SDS011;12883;52.662;5.196;2024-01-16T10:27:46;6.47;;;6.47;;
24787;SDS011;12883;52.662;5.196;2024-01-16T10:30:12;6.17;;;6.17;;
24787;SDS011;12883;52.662;5.196;2024-01-16T10:32:38;5.33;;;5.33;;
24787;SDS011;12883;52.662;5.196;2024-01-16T10:35:12;5.03;;;5.03;;
24787;SDS011;12883;52.662;5.196;2024-01-16T10:37:42;4.60;;;4.60;;
24787;SDS011;12883;52.662;5.196;2024-01-16T10:40:12;3.80;;;3.80;;
24787;SDS011;12883;52.662;5.196;2024-01-16T10:42:40;3.77;;;3.77;;
24787;SDS011;12883;52.662;5.196;2024-01-16T10:45:05;3.07;;;3.07;;
24787;SDS011;12883;52.662;5.196;2024-01-16T10:47:31;2.80;;;2.80;;
24787;SDS011;12883;52.662;5.196;2024-01-16T10:50:02;3.20;;;3.20;;
24787;SDS011;12883;52.662;5.196;2024-01-16T10:52:34;2.63;;;2.63;;
24787;SDS011;12883;52.662;5.196;2024-01-16T10:55:06;2.63;;;2.63;;
24787;SDS011;12883;52.662;5.196;2024-01-16T10:57:34;2.50;;;2.50;;
24787;SDS011;12883;52.662;5.196;2024-01-16T11:00:06;2.00;;;2.00;;
24787;SDS011;12883;52.662;5.196;2024-01-16T11:02:38;2.30;;;2.30;;
24787;SDS011;12883;52.662;5.196;2024-01-16T11:05:09;2.60;;;2.60;;
24787;SDS011;12883;52.662;5.196;2024-01-16T11:07:36;1.70;;;1.70;;
24787;SDS011;12883;52.662;5.196;2024-01-16T11:10:02;2.00;;;2.00;;
24787;SDS011;12883;52.662;5.196;2024-01-16T11:12:29;1.60;;;1.60;;
24787;SDS011;12883;52.662;5.196;2024-01-16T11:14:56;2.10;;;2.10;;
24787;SDS011;12883;52.662;5.196;2024-01-16T11:17:26;1.63;;;1.63;;
24787;SDS011;12883;52.662;5.196;2024-01-16T11:19:54;1.73;;;1.73;;
24787;SDS011;12883;52.662;5.196;2024-01-16T11:22:21;1.90;;;1.90;;
24787;SDS011;12883;52.662;5.196;2024-01-16T11:25:06;2.00;;;2.00;;
24787;SDS011;12883;52.662;5.196;2024-01-16T11:27:36;1.70;;;1.70;;
24787;SDS011;12883;52.662;5.196;2024-01-16T11:30:04;1.97;;;1.97;;
24787;SDS011;12883;52.662;5.196;2024-01-16T11:32:32;1.40;;;1.40;;
24787;SDS011;12883;52.662;5.196;2024-01-16T11:34:59;2.00;;;2.00;;
24787;SDS011;12883;52.662;5.196;2024-01-16T11:37:28;1.93;;;1.93;;
24787;SDS011;12883;52.662;5.196;2024-01-16T11:42:47;1.40;;;1.40;;
24787;SDS011;12883;52.662;5.196;2024-01-16T11:50:35;1.53;;;1.53;;
24787;SDS011;12883;52.662;5.196;2024-01-16T11:53:01;1.57;;;1.57;;
24787;SDS011;12883;52.662;5.196;2024-01-16T11:58:13;1.60;;;1.60;;
24787;SDS011;12883;52.662;5.196;2024-01-16T12:01:10;1.70;;;1.70;;
24787;SDS011;12883;52.662;5.196;2024-01-16T12:03:37;1.70;;;1.70;;
24787;SDS011;12883;52.662;5.196;2024-01-16T12:06:02;2.10;;;2.10;;
24787;SDS011;12883;52.662;5.196;2024-01-16T12:08:31;1.80;;;1.80;;
24787;SDS011;12883;52.662;5.196;2024-01-16T12:10:56;1.70;;;1.70;;
24787;SDS011;12883;52.662;5.196;2024-01-16T12:13:22;2.10;;;2.10;;
24787;SDS011;12883;52.662;5.196;2024-01-16T12:15:48;1.83;;;1.83;;
24787;SDS011;12883;52.662;5.196;2024-01-16T12:18:19;1.67;;;1.67;;
24787;SDS011;12883;52.662;5.196;2024-01-16T12:20:45;2.13;;;2.13;;
24787;SDS011;12883;52.662;5.196;2024-01-16T12:23:10;2.07;;;2.07;;
24787;SDS011;12883;52.662;5.196;2024-01-16T12:25:36;1.50;;;1.50;;
24787;SDS011;12883;52.662;5.196;2024-01-16T12:28:06;1.93;;;1.93;;
24787;SDS011;12883;52.662;5.196;2024-01-16T12:30:33;2.30;;;2.30;;
24787;SDS011;12883;52.662;5.196;2024-01-16T12:35:35;2.17;;;2.17;;
24787;SDS011;12883;52.662;5.196;2024-01-16T12:38:01;2.00;;;2.00;;
24787;SDS011;12883;52.662;5.196;2024-01-16T12:40:28;2.00;;;2.00;;
24787;SDS011;12883;52.662;5.196;2024-01-16T12:42:54;1.80;;;1.80;;
24787;SDS011;12883;52.662;5.196;2024-01-16T12:45:20;2.27;;;2.27;;
24787;SDS011;12883;52.662;5.196;2024-01-16T12:47:50;2.10;;;2.10;;
24787;SDS011;12883;52.662;5.196;2024-01-16T12:50:19;1.80;;;1.80;;
24787;SDS011;12883;52.662;5.196;2024-01-16T12:52:53;1.80;;;1.80;;
24787;SDS011;12883;52.662;5.196;2024-01-16T12:55:29;3.03;;;3.03;;
24787;SDS011;12883;52.662;5.196;2024-01-16T12:58:14;3.37;;;3.37;;
24787;SDS011;12883;52.662;5.196;2024-01-16T13:00:39;2.83;;;2.83;;
24787;SDS011;12883;52.662;5.196;2024-01-16T13:03:05;2.47;;;2.47;;
24787;SDS011;12883;52.662;5.196;2024-01-16T13:05:31;2.27;;;2.27;;
24787;SDS011;12883;52.662;5.196;2024-01-16T13:08:04;2.17;;;2.17;;
24787;SDS011;12883;52.662;5.196;2024-01-16T13:10:29;7.27;;;7.27;;
24787;SDS011;12883;52.662;5.196;2024-01-16T13:13:16;2.93;;;2.93;;
24787;SDS011;12883;52.662;5.196;2024-01-16T13:15:43;2.20;;;2.20;;
24787;SDS011;12883;52.662;5.196;2024-01-16T13:18:22;2.53;;;2.53;;
24787;SDS011;12883;52.662;5.196;2024-01-16T13:20:49;1.63;;;1.63;;
24787;SDS011;12883;52.662;5.196;2024-01-16T13:23:15;2.10;;;2.10;;
24787;SDS011;12883;52.662;5.196;2024-01-16T13:25:44;1.60;;;1.60;;
24787;SDS011;12883;52.662;5.196;2024-01-16T13:28:15;1.60;;;1.60;;
24787;SDS011;12883;52.662;5.196;2024-01-16T13:30:42;1.83;;;1.83;;
24787;SDS011;12883;52.662;5.196;2024-01-16T13:33:08;1.67;;;1.67;;
24787;SDS011;12883;52.662;5.196;2024-01-16T13:35:43;1.60;;;1.60;;
24787;SDS011;12883;52.662;5.196;2024-01-16T13:38:10;1.50;;;1.50;;
24787;SDS011;12883;52.662;5.196;2024-01-16T13:40:36;1.70;;;1.70;;
24787;SDS011;12883;52.662;5.196;2024-01-16T13:43:03;1.63;;;1.63;;
24787;SDS011;12883;52.662;5.196;2024-01-16T13:45:29;1.50;;;1.50;;
24787;SDS011;12883;52.662;5.196;2024-01-16T13:47:54;1.73;;;1.73;;
24787;SDS011;12883;52.662;5.196;2024-01-16T13:50:20;1.10;;;1.10;;
24787;SDS011;12883;52.662;5.196;2024-01-16T13:52:46;1.20;;;1.20;;
24787;SDS011;12883;52.662;5.196;2024-01-16T13:55:11;1.70;;;1.70;;
24787;SDS011;12883;52.662;5.196;2024-01-16T13:57:37;1.20;;;1.20;;
24787;SDS011;12883;52.662;5.196;2024-01-16T14:00:04;1.30;;;1.30;;
24787;SDS011;12883;52.662;5.196;2024-01-16T14:02:30;1.10;;;1.10;;
24787;SDS011;12883;52.662;5.196;2024-01-16T14:04:55;2.30;;;2.30;;
24787;SDS011;12883;52.662;5.196;2024-01-16T14:07:21;1.17;;;1.17;;
24787;SDS011;12883;52.662;5.196;2024-01-16T14:09:47;1.37;;;1.37;;
24787;SDS011;12883;52.662;5.196;2024-01-16T14:12:13;1.30;;;1.30;;
24787;SDS011;12883;52.662;5.196;2024-01-16T14:14:38;1.00;;;1.00;;
24787;SDS011;12883;52.662;5.196;2024-01-16T14:17:05;1.97;;;1.97;;
24787;SDS011;12883;52.662;5.196;2024-01-16T14:19:31;1.17;;;1.17;;
24787;SDS011;12883;52.662;5.196;2024-01-16T14:21:56;1.23;;;1.23;;
24787;SDS011;12883;52.662;5.196;2024-01-16T14:24:22;1.27;;;1.27;;
24787;SDS011;12883;52.662;5.196;2024-01-16T14:26:47;0.87;;;0.87;;
24787;SDS011;12883;52.662;5.196;2024-01-16T14:29:13;1.03;;;1.03;;
24787;SDS011;12883;52.662;5.196;2024-01-16T14:31:38;1.10;;;1.10;;
24787;SDS011;12883;52.662;5.196;2024-01-16T14:34:09;1.00;;;1.00;;
24787;SDS011;12883;52.662;5.196;2024-01-16T14:36:36;1.20;;;1.20;;
24787;SDS011;12883;52.662;5.196;2024-01-16T14:39:01;1.50;;;1.50;;
24787;SDS011;12883;52.662;5.196;2024-01-16T14:41:26;1.10;;;1.10;;
24787;SDS011;12883;52.662;5.196;2024-01-16T14:43:52;1.17;;;1.17;;
24787;SDS011;12883;52.662;5.196;2024-01-16T14:46:17;1.33;;;1.33;;
24787;SDS011;12883;52.662;5.196;2024-01-16T14:48:44;1.07;;;1.07;;
24787;SDS011;12883;52.662;5.196;2024-01-16T14:51:10;1.20;;;1.20;;
24787;SDS011;12883;52.662;5.196;2024-01-16T14:53:36;0.93;;;0.93;;
24787;SDS011;12883;52.662;5.196;2024-01-16T14:56:02;0.97;;;0.97;;